createdAt,value
2019-03-29T00:04:15.736Z,58.25
2019-03-29T00:09:19.835Z,55.35
2019-03-29T00:14:23.968Z,56.80
2019-03-29T00:19:28.919Z,54.03
2019-03-29T00:24:32.880Z,52.75
2019-03-29T00:29:36.759Z,58.80
2019-03-29T00:34:41.304Z,68.70
2019-03-29T00:39:45.949Z,66.12
2019-03-29T00:44:49.823Z,110.57
2019-03-29T00:49:53.635Z,72.55
2019-03-29T00:54:57.509Z,54.38
2019-03-29T01:00:01.371Z,44.48
2019-03-29T01:05:06.775Z,44.73
2019-03-29T01:10:11.723Z,42.83
2019-03-29T01:15:17.224Z,40.50
2019-03-29T01:20:21.778Z,36.73
2019-03-29T01:25:25.816Z,37.60
2019-03-29T01:30:29.836Z,35.92
2019-03-29T01:35:33.670Z,35.20
2019-03-29T01:40:37.488Z,29.67
2019-03-29T01:45:41.418Z,26.33
2019-03-29T01:50:45.298Z,25.60
2019-03-29T01:55:49.142Z,27.07
2019-03-29T02:00:52.971Z,29.70
2019-03-29T02:05:56.868Z,27.93
2019-03-29T02:11:00.772Z,28.47
2019-03-29T02:16:04.654Z,29.32
2019-03-29T02:21:08.503Z,28.85
2019-03-29T02:26:12.364Z,28.05
2019-03-29T02:31:16.232Z,27.65
2019-03-29T02:36:20.097Z,27.73
2019-03-29T02:41:23.897Z,26.87
2019-03-29T02:46:27.753Z,25.97
2019-03-29T02:51:32.718Z,24.80
2019-03-29T02:56:36.639Z,23.38
2019-03-29T03:01:40.536Z,23.85
2019-03-29T03:06:44.384Z,24.37
2019-03-29T03:11:48.211Z,23.62
2019-03-29T03:16:52.264Z,22.82
2019-03-29T03:21:56.121Z,23.07
2019-03-29T03:27:00.011Z,22.98
2019-03-29T03:32:03.950Z,23.90
2019-03-29T03:37:07.768Z,22.85
2019-03-29T03:42:11.677Z,25.50
2019-03-29T03:47:15.590Z,25.48
2019-03-29T03:52:19.429Z,27.27
2019-03-29T03:57:24.245Z,30.12
2019-03-29T04:02:28.325Z,35.35
2019-03-29T04:07:32.254Z,26.30
2019-03-29T04:12:36.157Z,25.10
2019-03-29T04:17:40.016Z,26.10
2019-03-29T04:22:43.986Z,27.02
2019-03-29T04:27:47.872Z,31.52
2019-03-29T04:32:51.746Z,28.92
2019-03-29T04:37:55.542Z,31.40
2019-03-29T04:42:59.399Z,34.00
2019-03-29T04:48:03.299Z,32.05
2019-03-29T04:53:07.202Z,34.13
2019-03-29T04:58:11.140Z,38.88
2019-03-29T05:03:14.944Z,46.20
2019-03-29T05:08:19.213Z,42.33
2019-03-29T05:13:23.114Z,37.78
2019-03-29T05:18:27.014Z,34.98
2019-03-29T05:23:30.886Z,33.80
2019-03-29T05:28:34.670Z,35.95
2019-03-29T05:33:38.464Z,25.17
2019-03-29T05:38:42.326Z,26.25
2019-03-29T05:43:46.187Z,23.62
2019-03-29T05:48:50.048Z,24.18
2019-03-29T05:53:53.921Z,22.93
2019-03-29T05:58:57.783Z,23.73
2019-03-29T06:04:01.643Z,24.50
2019-03-29T06:09:06.624Z,25.17
2019-03-29T06:14:10.419Z,21.00
2019-03-29T06:19:14.275Z,20.15
2019-03-29T06:24:18.075Z,18.52
2019-03-29T06:29:21.879Z,16.42
2019-03-29T06:34:25.748Z,15.08
2019-03-29T06:39:30.738Z,14.43
2019-03-29T06:44:34.584Z,14.65
2019-03-29T06:49:38.384Z,15.40
2019-03-29T06:54:42.183Z,12.43
2019-03-29T06:59:46.096Z,12.18
2019-03-29T07:04:49.927Z,10.55
2019-03-29T07:09:53.793Z,11.30
2019-03-29T07:14:57.657Z,7.95
2019-03-29T07:20:01.602Z,7.45
2019-03-29T07:25:08.787Z,6.20
2019-03-29T07:30:13.721Z,4.37
2019-03-29T07:35:17.583Z,4.17
2019-03-29T07:40:21.450Z,4.65
2019-03-29T07:45:25.306Z,4.08
2019-03-29T07:50:29.168Z,4.10
2019-03-29T07:55:33.038Z,4.33
2019-03-29T08:00:36.898Z,4.05
2019-03-29T08:05:40.768Z,4.08
2019-03-29T08:10:44.619Z,4.37
2019-03-29T08:15:48.578Z,4.22
2019-03-29T08:20:52.470Z,3.62
2019-03-29T08:25:56.383Z,4.40
2019-03-29T08:31:00.333Z,3.87
2019-03-29T08:36:04.252Z,4.05
2019-03-29T08:41:08.138Z,3.52
2019-03-29T08:46:12.048Z,3.45
2019-03-29T08:51:15.969Z,4.22
2019-03-29T08:56:19.987Z,4.35
2019-03-29T09:01:23.940Z,4.62
2019-03-29T09:06:30.159Z,3.80
2019-03-29T09:11:33.727Z,4.75
2019-03-29T09:16:37.668Z,4.55
2019-03-29T09:21:41.591Z,3.72
2019-03-29T09:26:45.459Z,3.35
2019-03-29T09:31:49.369Z,3.30
2019-03-29T09:36:53.268Z,2.98
2019-03-29T09:41:57.151Z,2.75
2019-03-29T09:47:01.047Z,3.08
2019-03-29T09:52:05.022Z,3.25
2019-03-29T09:57:10.071Z,3.10
2019-03-29T10:02:14.514Z,3.80
2019-03-29T10:07:18.418Z,3.62
2019-03-29T10:12:22.336Z,3.12
2019-03-29T10:17:26.199Z,3.08
2019-03-29T10:22:30.059Z,3.42
2019-03-29T10:27:54.881Z,4.50
2019-03-29T10:32:58.688Z,3.75
2019-03-29T10:38:02.689Z,2.75
2019-03-29T10:43:07.243Z,3.37
2019-03-29T10:48:11.108Z,3.15
2019-03-29T10:53:15.021Z,3.10
2019-03-29T10:58:18.914Z,2.75
2019-03-29T11:03:22.888Z,3.85
2019-03-29T11:08:26.817Z,3.85
2019-03-29T11:13:30.703Z,4.42
2019-03-29T11:18:34.953Z,5.37
2019-03-29T11:23:38.811Z,6.65
2019-03-29T11:28:44.248Z,6.35
2019-03-29T11:33:48.230Z,8.03
2019-03-29T11:38:52.195Z,7.53
2019-03-29T11:44:08.524Z,6.55
2019-03-29T11:49:13.186Z,4.17
2019-03-29T11:54:17.089Z,4.83
2019-03-29T12:04:39.400Z,5.50
2019-03-29T12:09:43.306Z,6.62
2019-03-29T12:14:47.181Z,7.78
2019-03-29T12:19:51.175Z,8.35
2019-03-29T12:24:55.022Z,7.05
2019-03-29T12:29:58.910Z,6.37
2019-03-29T12:35:03.325Z,5.53
2019-03-29T12:40:07.965Z,6.65
2019-03-29T12:45:12.116Z,6.78
2019-03-29T12:50:16.229Z,6.25
2019-03-29T12:55:20.123Z,8.13
2019-03-29T13:00:24.013Z,6.80
2019-03-29T13:05:29.486Z,6.95
2019-03-29T13:10:33.476Z,6.30
2019-03-29T13:15:37.537Z,6.28
2019-03-29T13:20:41.446Z,6.20
2019-03-29T13:25:45.372Z,5.22
2019-03-29T13:30:49.668Z,5.75
2019-03-29T13:35:53.580Z,6.62
2019-03-29T13:40:57.496Z,5.53
2019-03-29T13:46:01.424Z,6.30
2019-03-29T13:51:05.459Z,5.47
2019-03-29T13:56:09.388Z,5.78
2019-03-29T14:01:13.278Z,6.10
2019-03-29T14:06:17.181Z,5.92
2019-03-29T14:11:21.711Z,6.67
2019-03-29T14:16:28.379Z,7.37
2019-03-29T14:21:32.303Z,6.22
2019-03-29T14:26:36.288Z,7.35
2019-03-29T14:31:40.135Z,17.95
2019-03-29T14:36:45.196Z,7.47
2019-03-29T14:41:49.077Z,6.85
2019-03-29T14:46:52.994Z,6.83
2019-03-29T14:51:57.059Z,8.63
2019-03-29T14:57:05.428Z,7.58
2019-03-29T15:02:09.059Z,7.00
2019-03-29T15:07:12.978Z,7.55
2019-03-29T15:12:18.470Z,6.53
2019-03-29T15:17:22.519Z,8.33
2019-03-29T15:22:26.574Z,7.85
2019-03-29T15:27:30.667Z,6.08
2019-03-29T15:32:34.701Z,6.30
2019-03-29T15:37:38.781Z,5.90
2019-03-29T15:42:42.738Z,7.12
2019-03-29T15:47:46.693Z,8.05
2019-03-29T15:52:50.640Z,6.85
2019-03-29T15:57:54.773Z,8.05
2019-03-29T16:02:58.724Z,6.80
2019-03-29T16:08:03.815Z,7.12
2019-03-29T16:13:07.702Z,9.30
2019-03-29T16:18:11.576Z,11.10
2019-03-29T16:23:15.460Z,12.70
2019-03-29T16:28:19.367Z,11.10
2019-03-29T16:33:23.289Z,11.43
2019-03-29T16:38:27.312Z,9.85
2019-03-29T16:43:31.208Z,10.45
2019-03-29T16:48:35.011Z,16.17
2019-03-29T16:53:39.881Z,12.60
2019-03-29T16:58:43.885Z,14.35
2019-03-29T17:03:47.821Z,25.90
2019-03-29T17:08:51.633Z,25.43
2019-03-29T17:13:55.543Z,30.10
2019-03-29T17:18:59.671Z,31.75
2019-03-29T17:24:09.877Z,35.92
2019-03-29T17:29:14.085Z,33.70
2019-03-29T17:34:17.975Z,29.95
2019-03-29T17:39:22.215Z,27.80
2019-03-29T17:44:26.437Z,23.87
2019-03-29T17:49:30.340Z,22.55
2019-03-29T17:54:34.420Z,19.12
2019-03-29T17:59:38.528Z,16.85
2019-03-29T18:04:42.404Z,17.12
2019-03-29T18:09:46.602Z,16.52
2019-03-29T18:14:50.457Z,16.95
2019-03-29T18:19:54.383Z,20.90
2019-03-29T18:24:58.279Z,22.35
2019-03-29T18:30:02.157Z,26.00
2019-03-29T18:35:07.746Z,27.13
2019-03-29T18:40:17.393Z,28.17
2019-03-29T18:50:24.274Z,31.00
2019-03-29T18:55:28.163Z,30.02
2019-03-29T19:00:33.751Z,30.45
2019-03-29T19:05:38.733Z,30.70
2019-03-29T19:10:42.623Z,29.55
2019-03-29T19:15:47.674Z,31.45
2019-03-29T19:20:52.954Z,45.00
2019-03-29T19:25:57.335Z,44.58
2019-03-29T19:31:02.372Z,178.20
2019-03-29T19:36:06.482Z,125.27
2019-03-29T19:41:10.393Z,125.12
2019-03-29T19:46:14.406Z,107.63
2019-03-29T19:51:18.322Z,86.28
2019-03-29T19:56:22.273Z,124.12
2019-03-29T20:01:26.204Z,102.02
2019-03-29T20:06:30.184Z,110.68
2019-03-29T20:11:34.116Z,110.45
2019-03-29T20:16:38.140Z,110.10
2019-03-29T20:21:42.004Z,111.80
2019-03-29T20:26:45.994Z,109.10
2019-03-29T20:31:50.654Z,106.35
2019-03-29T20:36:54.755Z,107.65
2019-03-29T20:41:58.609Z,101.00
2019-03-29T20:47:02.794Z,93.35
2019-03-29T20:52:06.699Z,105.90
2019-03-29T20:57:11.759Z,147.17
2019-03-29T21:02:15.770Z,135.28
2019-03-29T21:07:20.331Z,126.82
2019-03-29T21:12:24.594Z,132.37
2019-03-29T21:17:28.601Z,89.55
2019-03-29T21:22:32.837Z,81.87
2019-03-29T21:27:37.236Z,102.72
2019-03-29T21:32:41.127Z,166.73
2019-03-29T21:37:45.011Z,200.60
2019-03-29T21:42:48.940Z,179.12
2019-03-29T21:48:04.085Z,152.35
2019-03-29T21:52:58.423Z,160.63
2019-03-29T21:58:02.520Z,113.00
2019-03-29T22:03:06.407Z,87.97
2019-03-29T22:08:10.279Z,68.22
2019-03-29T22:13:14.194Z,61.85
2019-03-29T22:18:18.175Z,59.27
2019-03-29T22:23:22.101Z,73.78
2019-03-29T22:28:26.037Z,55.03
2019-03-29T22:33:29.943Z,76.45
2019-03-29T22:38:33.871Z,56.45
2019-03-29T22:43:37.707Z,51.45
2019-03-29T22:48:52.232Z,49.67
2019-03-29T22:53:47.233Z,54.18
2019-03-29T22:58:51.162Z,51.00
2019-03-29T23:03:55.184Z,54.25
2019-03-29T23:08:59.106Z,53.42
2019-03-29T23:14:03.017Z,51.45
2019-03-29T23:19:07.235Z,45.55
2019-03-29T23:24:11.167Z,45.03
2019-03-29T23:29:15.030Z,46.28
2019-03-29T23:34:18.895Z,45.92
2019-03-29T23:39:22.760Z,43.63
2019-03-29T23:44:26.650Z,39.80
2019-03-29T23:49:30.504Z,42.73
2019-03-29T23:54:34.379Z,42.60
2019-03-29T23:59:38.244Z,49.38
